sensor_id;sensor_type;location;lat;lon;timestamp;P1;durP1;ratioP1;P2;durP2;ratioP2
45408;SDS011;31162;51.076;3.784;2023-02-28T00:01:25;7.75;;;6.95;;
45408;SDS011;31162;51.076;3.784;2023-02-28T00:03:50;7.72;;;6.93;;
45408;SDS011;31162;51.076;3.784;2023-02-28T00:06:16;8.38;;;6.88;;
45408;SDS011;31162;51.076;3.784;2023-02-28T00:08:43;11.05;;;7.00;;
45408;SDS011;31162;51.076;3.784;2023-02-28T00:11:09;7.18;;;6.47;;
45408;SDS011;31162;51.076;3.784;2023-02-28T00:13:39;7.35;;;6.68;;
45408;SDS011;31162;51.076;3.784;2023-02-28T00:16:08;12.05;;;7.35;;
45408;SDS011;31162;51.076;3.784;2023-02-28T00:18:36;10.05;;;7.68;;
45408;SDS011;31162;51.076;3.784;2023-02-28T00:21:02;8.85;;;6.65;;
45408;SDS011;31162;51.076;3.784;2023-02-28T00:23:28;9.23;;;7.47;;
45408;SDS011;31162;51.076;3.784;2023-02-28T00:25:53;8.52;;;7.32;;
45408;SDS011;31162;51.076;3.784;2023-02-28T00:28:19;9.45;;;7.50;;
45408;SDS011;31162;51.076;3.784;2023-02-28T00:30:45;8.73;;;7.38;;
45408;SDS011;31162;51.076;3.784;2023-02-28T00:33:11;8.30;;;7.57;;
45408;SDS011;31162;51.076;3.784;2023-02-28T00:35:37;10.02;;;7.40;;
45408;SDS011;31162;51.076;3.784;2023-02-28T00:38:03;9.13;;;7.70;;
45408;SDS011;31162;51.076;3.784;2023-02-28T00:40:28;9.23;;;8.35;;
45408;SDS011;31162;51.076;3.784;2023-02-28T00:42:54;8.63;;;7.82;;
45408;SDS011;31162;51.076;3.784;2023-02-28T00:45:20;8.70;;;7.90;;
45408;SDS011;31162;51.076;3.784;2023-02-28T00:47:46;8.35;;;7.45;;
45408;SDS011;31162;51.076;3.784;2023-02-28T00:50:14;8.35;;;7.55;;
45408;SDS011;31162;51.076;3.784;2023-02-28T00:52:49;9.00;;;7.97;;
45408;SDS011;31162;51.076;3.784;2023-02-28T00:55:14;9.45;;;8.45;;
45408;SDS011;31162;51.076;3.784;2023-02-28T00:57:40;8.95;;;8.05;;
45408;SDS011;31162;51.076;3.784;2023-02-28T01:00:06;8.93;;;8.00;;
45408;SDS011;31162;51.076;3.784;2023-02-28T01:02:33;9.70;;;8.73;;
45408;SDS011;31162;51.076;3.784;2023-02-28T01:04:58;10.07;;;9.05;;
45408;SDS011;31162;51.076;3.784;2023-02-28T01:07:24;10.57;;;8.75;;
45408;SDS011;31162;51.076;3.784;2023-02-28T01:09:50;10.40;;;8.68;;
45408;SDS011;31162;51.076;3.784;2023-02-28T01:12:15;10.80;;;9.70;;
45408;SDS011;31162;51.076;3.784;2023-02-28T01:14:41;10.52;;;9.40;;
45408;SDS011;31162;51.076;3.784;2023-02-28T01:17:07;9.45;;;8.38;;
45408;SDS011;31162;51.076;3.784;2023-02-28T01:19:33;9.40;;;8.27;;
45408;SDS011;31162;51.076;3.784;2023-02-28T01:22:01;9.23;;;8.30;;
45408;SDS011;31162;51.076;3.784;2023-02-28T01:24:27;10.52;;;8.68;;
45408;SDS011;31162;51.076;3.784;2023-02-28T01:26:53;10.20;;;8.52;;
45408;SDS011;31162;51.076;3.784;2023-02-28T01:29:19;10.75;;;8.25;;
45408;SDS011;31162;51.076;3.784;2023-02-28T01:31:44;9.98;;;8.35;;
45408;SDS011;31162;51.076;3.784;2023-02-28T01:34:10;9.18;;;8.32;;
45408;SDS011;31162;51.076;3.784;2023-02-28T01:36:36;9.10;;;8.30;;
45408;SDS011;31162;51.076;3.784;2023-02-28T01:39:01;9.55;;;8.10;;
45408;SDS011;31162;51.076;3.784;2023-02-28T01:41:29;9.40;;;8.30;;
45408;SDS011;31162;51.076;3.784;2023-02-28T01:44:04;10.90;;;8.50;;
45408;SDS011;31162;51.076;3.784;2023-02-28T01:46:49;10.30;;;8.15;;
45408;SDS011;31162;51.076;3.784;2023-02-28T01:49:15;9.75;;;8.40;;
45408;SDS011;31162;51.076;3.784;2023-02-28T01:51:44;11.05;;;9.02;;
45408;SDS011;31162;51.076;3.784;2023-02-28T01:54:20;10.13;;;9.07;;
45408;SDS011;31162;51.076;3.784;2023-02-28T01:56:55;12.27;;;9.77;;
45408;SDS011;31162;51.076;3.784;2023-02-28T01:59:33;10.85;;;9.55;;
45408;SDS011;31162;51.076;3.784;2023-02-28T02:02:13;11.40;;;9.70;;
45408;SDS011;31162;51.076;3.784;2023-02-28T02:04:42;11.23;;;10.07;;
45408;SDS011;31162;51.076;3.784;2023-02-28T02:07:15;10.98;;;9.90;;
45408;SDS011;31162;51.076;3.784;2023-02-28T02:09:41;10.77;;;9.68;;
45408;SDS011;31162;51.076;3.784;2023-02-28T02:12:15;11.45;;;10.18;;
45408;SDS011;31162;51.076;3.784;2023-02-28T02:14:49;11.35;;;10.15;;
45408;SDS011;31162;51.076;3.784;2023-02-28T02:34:58;12.57;;;9.90;;
45408;SDS011;31162;51.076;3.784;2023-02-28T02:37:29;11.35;;;10.10;;
45408;SDS011;31162;51.076;3.784;2023-02-28T02:42:59;11.55;;;10.45;;
45408;SDS011;31162;51.076;3.784;2023-02-28T02:45:51;11.63;;;10.52;;
45408;SDS011;31162;51.076;3.784;2023-02-28T02:48:25;14.45;;;10.70;;
45408;SDS011;31162;51.076;3.784;2023-02-28T02:50:55;12.20;;;10.95;;
45408;SDS011;31162;51.076;3.784;2023-02-28T02:53:26;11.63;;;10.52;;
45408;SDS011;31162;51.076;3.784;2023-02-28T02:55:59;13.15;;;11.57;;
45408;SDS011;31162;51.076;3.784;2023-02-28T02:58:31;12.10;;;10.90;;
45408;SDS011;31162;51.076;3.784;2023-02-28T03:01:06;11.27;;;10.18;;
45408;SDS011;31162;51.076;3.784;2023-02-28T03:03:35;12.32;;;11.13;;
45408;SDS011;31162;51.076;3.784;2023-02-28T03:06:01;12.55;;;11.25;;
45408;SDS011;31162;51.076;3.784;2023-02-28T03:08:29;12.85;;;11.55;;
45408;SDS011;31162;51.076;3.784;2023-02-28T03:10:59;12.70;;;11.40;;
45408;SDS011;31162;51.076;3.784;2023-02-28T03:16:32;13.10;;;10.95;;
45408;SDS011;31162;51.076;3.784;2023-02-28T03:22:04;11.52;;;10.27;;
45408;SDS011;31162;51.076;3.784;2023-02-28T03:30:14;11.38;;;10.13;;
45408;SDS011;31162;51.076;3.784;2023-02-28T03:32:56;12.77;;;9.68;;
45408;SDS011;31162;51.076;3.784;2023-02-28T03:35:36;11.13;;;10.02;;
45408;SDS011;31162;51.076;3.784;2023-02-28T03:41:19;12.82;;;10.75;;
45408;SDS011;31162;51.076;3.784;2023-02-28T03:43:53;12.23;;;9.63;;
45408;SDS011;31162;51.076;3.784;2023-02-28T03:46:23;11.65;;;9.82;;
45408;SDS011;31162;51.076;3.784;2023-02-28T03:48:54;12.65;;;10.20;;
45408;SDS011;31162;51.076;3.784;2023-02-28T03:51:24;11.00;;;9.77;;
45408;SDS011;31162;51.076;3.784;2023-02-28T03:53:59;12.32;;;10.27;;
45408;SDS011;31162;51.076;3.784;2023-02-28T03:59:28;11.65;;;10.07;;
45408;SDS011;31162;51.076;3.784;2023-02-28T04:02:04;12.63;;;9.52;;
45408;SDS011;31162;51.076;3.784;2023-02-28T04:04:30;11.35;;;9.57;;
45408;SDS011;31162;51.076;3.784;2023-02-28T04:07:04;12.70;;;10.13;;
45408;SDS011;31162;51.076;3.784;2023-02-28T04:09:32;11.57;;;9.43;;
45408;SDS011;31162;51.076;3.784;2023-02-28T04:11:57;11.65;;;10.15;;
45408;SDS011;31162;51.076;3.784;2023-02-28T04:14:23;11.45;;;9.30;;
45408;SDS011;31162;51.076;3.784;2023-02-28T04:16:49;11.55;;;9.23;;
45408;SDS011;31162;51.076;3.784;2023-02-28T04:19:16;9.77;;;8.75;;
45408;SDS011;31162;51.076;3.784;2023-02-28T04:21:42;10.57;;;9.48;;
45408;SDS011;31162;51.076;3.784;2023-02-28T04:24:14;10.27;;;8.40;;
45408;SDS011;31162;51.076;3.784;2023-02-28T04:26:42;9.85;;;8.60;;
45408;SDS011;31162;51.076;3.784;2023-02-28T04:29:09;9.15;;;8.25;;
45408;SDS011;31162;51.076;3.784;2023-02-28T04:31:36;12.30;;;8.57;;
45408;SDS011;31162;51.076;3.784;2023-02-28T04:34:02;9.15;;;8.20;;
45408;SDS011;31162;51.076;3.784;2023-02-28T04:36:28;12.07;;;8.50;;
45408;SDS011;31162;51.076;3.784;2023-02-28T04:38:54;9.30;;;8.27;;
45408;SDS011;31162;51.076;3.784;2023-02-28T04:41:20;9.18;;;8.05;;
45408;SDS011;31162;51.076;3.784;2023-02-28T04:43:46;9.52;;;8.60;;
45408;SDS011;31162;51.076;3.784;2023-02-28T04:46:12;11.45;;;8.23;;
45408;SDS011;31162;51.076;3.784;2023-02-28T04:48:38;10.68;;;9.57;;
45408;SDS011;31162;51.076;3.784;2023-02-28T04:51:06;9.65;;;8.63;;
45408;SDS011;31162;51.076;3.784;2023-02-28T04:53:34;9.73;;;8.73;;
45408;SDS011;31162;51.076;3.784;2023-02-28T04:56:00;9.70;;;8.13;;
45408;SDS011;31162;51.076;3.784;2023-02-28T04:58:27;11.15;;;8.43;;
45408;SDS011;31162;51.076;3.784;2023-02-28T05:00:53;12.77;;;8.70;;
45408;SDS011;31162;51.076;3.784;2023-02-28T05:03:19;10.15;;;8.20;;
45408;SDS011;31162;51.076;3.784;2023-02-28T05:05:47;9.98;;;8.30;;
45408;SDS011;31162;51.076;3.784;2023-02-28T05:08:12;10.20;;;8.35;;
45408;SDS011;31162;51.076;3.784;2023-02-28T05:10:38;11.65;;;8.15;;
45408;SDS011;31162;51.076;3.784;2023-02-28T05:13:04;10.50;;;9.40;;
45408;SDS011;31162;51.076;3.784;2023-02-28T05:15:30;12.38;;;10.70;;
45408;SDS011;31162;51.076;3.784;2023-02-28T05:17:56;20.13;;;15.77;;
45408;SDS011;31162;51.076;3.784;2023-02-28T05:20:21;11.20;;;10.10;;
45408;SDS011;31162;51.076;3.784;2023-02-28T05:22:47;11.02;;;9.70;;
45408;SDS011;31162;51.076;3.784;2023-02-28T05:25:18;12.32;;;9.02;;
45408;SDS011;31162;51.076;3.784;2023-02-28T05:27:46;10.75;;;9.00;;
45408;SDS011;31162;51.076;3.784;2023-02-28T05:30:12;10.88;;;8.52;;
45408;SDS011;31162;51.076;3.784;2023-02-28T05:32:38;9.57;;;8.35;;
45408;SDS011;31162;51.076;3.784;2023-02-28T05:35:07;9.43;;;8.13;;
45408;SDS011;31162;51.076;3.784;2023-02-28T05:37:34;10.68;;;9.68;;
45408;SDS011;31162;51.076;3.784;2023-02-28T05:39:59;10.07;;;9.07;;
45408;SDS011;31162;51.076;3.784;2023-02-28T05:42:26;11.25;;;9.70;;
45408;SDS011;31162;51.076;3.784;2023-02-28T05:44:51;24.67;;;18.20;;
45408;SDS011;31162;51.076;3.784;2023-02-28T05:47:17;10.60;;;8.75;;
45408;SDS011;31162;51.076;3.784;2023-02-28T05:49:42;10.43;;;9.15;;
45408;SDS011;31162;51.076;3.784;2023-02-28T05:52:08;10.23;;;9.23;;
45408;SDS011;31162;51.076;3.784;2023-02-28T05:54:34;11.82;;;8.77;;
45408;SDS011;31162;51.076;3.784;2023-02-28T05:56:59;9.90;;;8.90;;
45408;SDS011;31162;51.076;3.784;2023-02-28T05:59:25;13.55;;;9.65;;
45408;SDS011;31162;51.076;3.784;2023-02-28T06:01:51;9.75;;;8.75;;
45408;SDS011;31162;51.076;3.784;2023-02-28T06:04:18;17.60;;;14.35;;
45408;SDS011;31162;51.076;3.784;2023-02-28T06:06:45;10.68;;;8.23;;
45408;SDS011;31162;51.076;3.784;2023-02-28T06:09:12;11.00;;;8.32;;
45408;SDS011;31162;51.076;3.784;2023-02-28T06:11:38;12.63;;;8.65;;
45408;SDS011;31162;51.076;3.784;2023-02-28T06:14:04;9.77;;;8.32;;
45408;SDS011;31162;51.076;3.784;2023-02-28T06:16:30;9.20;;;8.27;;
45408;SDS011;31162;51.076;3.784;2023-02-28T06:18:58;10.75;;;8.65;;
45408;SDS011;31162;51.076;3.784;2023-02-28T06:21:25;10.48;;;8.25;;
45408;SDS011;31162;51.076;3.784;2023-02-28T06:23:52;8.52;;;7.65;;
45408;SDS011;31162;51.076;3.784;2023-02-28T06:26:19;9.82;;;8.63;;
45408;SDS011;31162;51.076;3.784;2023-02-28T06:28:45;10.30;;;9.02;;
45408;SDS011;31162;51.076;3.784;2023-02-28T06:31:11;11.10;;;8.98;;
45408;SDS011;31162;51.076;3.784;2023-02-28T06:33:39;9.32;;;8.27;;
45408;SDS011;31162;51.076;3.784;2023-02-28T06:36:05;14.20;;;8.85;;
45408;SDS011;31162;51.076;3.784;2023-02-28T06:38:32;11.88;;;9.27;;
45408;SDS011;31162;51.076;3.784;2023-02-28T06:40:59;10.70;;;9.05;;
45408;SDS011;31162;51.076;3.784;2023-02-28T06:43:27;9.90;;;8.90;;
45408;SDS011;31162;51.076;3.784;2023-02-28T06:45:55;10.10;;;9.10;;
45408;SDS011;31162;51.076;3.784;2023-02-28T06:48:22;11.07;;;9.00;;
45408;SDS011;31162;51.076;3.784;2023-02-28T06:50:48;12.35;;;8.52;;
45408;SDS011;31162;51.076;3.784;2023-02-28T06:53:14;9.63;;;8.05;;
45408;SDS011;31162;51.076;3.784;2023-02-28T06:55:40;11.65;;;8.40;;
45408;SDS011;31162;51.076;3.784;2023-02-28T06:58:06;12.38;;;9.32;;
45408;SDS011;31162;51.076;3.784;2023-02-28T07:00:40;9.40;;;8.00;;
45408;SDS011;31162;51.076;3.784;2023-02-28T07:03:07;9.60;;;8.60;;
45408;SDS011;31162;51.076;3.784;2023-02-28T07:05:34;12.20;;;8.93;;
45408;SDS011;31162;51.076;3.784;2023-02-28T07:08:01;12.88;;;8.80;;
45408;SDS011;31162;51.076;3.784;2023-02-28T07:10:28;12.02;;;8.60;;
45408;SDS011;31162;51.076;3.784;2023-02-28T07:12:54;10.50;;;8.05;;
45408;SDS011;31162;51.076;3.784;2023-02-28T07:15:20;11.50;;;10.02;;
45408;SDS011;31162;51.076;3.784;2023-02-28T07:17:46;11.23;;;7.80;;
45408;SDS011;31162;51.076;3.784;2023-02-28T07:20:11;11.90;;;8.38;;
45408;SDS011;31162;51.076;3.784;2023-02-28T07:22:37;10.02;;;8.20;;
45408;SDS011;31162;51.076;3.784;2023-02-28T07:25:04;16.23;;;8.80;;
45408;SDS011;31162;51.076;3.784;2023-02-28T07:27:30;10.82;;;7.90;;
45408;SDS011;31162;51.076;3.784;2023-02-28T07:29:56;8.65;;;7.65;;
45408;SDS011;31162;51.076;3.784;2023-02-28T07:32:21;9.68;;;7.53;;
45408;SDS011;31162;51.076;3.784;2023-02-28T07:34:47;8.55;;;7.70;;
45408;SDS011;31162;51.076;3.784;2023-02-28T07:37:13;10.85;;;7.65;;
45408;SDS011;31162;51.076;3.784;2023-02-28T07:39:39;8.93;;;7.90;;
45408;SDS011;31162;51.076;3.784;2023-02-28T07:42:07;8.02;;;7.20;;
45408;SDS011;31162;51.076;3.784;2023-02-28T07:44:36;10.65;;;7.55;;
45408;SDS011;31162;51.076;3.784;2023-02-28T07:47:05;8.43;;;7.50;;
45408;SDS011;31162;51.076;3.784;2023-02-28T07:49:32;11.98;;;7.65;;
45408;SDS011;31162;51.076;3.784;2023-02-28T07:51:58;8.20;;;6.65;;
45408;SDS011;31162;51.076;3.784;2023-02-28T07:54:24;8.43;;;6.82;;
45408;SDS011;31162;51.076;3.784;2023-02-28T07:56:50;8.68;;;6.95;;
45408;SDS011;31162;51.076;3.784;2023-02-28T07:59:15;7.85;;;6.30;;
45408;SDS011;31162;51.076;3.784;2023-02-28T08:01:41;8.10;;;6.80;;
45408;SDS011;31162;51.076;3.784;2023-02-28T08:04:08;8.18;;;6.88;;
45408;SDS011;31162;51.076;3.784;2023-02-28T08:06:34;18.52;;;8.32;;
45408;SDS011;31162;51.076;3.784;2023-02-28T08:09:00;33.20;;;10.63;;
45408;SDS011;31162;51.076;3.784;2023-02-28T08:11:25;15.40;;;6.70;;
45408;SDS011;31162;51.076;3.784;2023-02-28T08:13:51;6.40;;;5.80;;
45408;SDS011;31162;51.076;3.784;2023-02-28T08:16:17;11.93;;;6.18;;
45408;SDS011;31162;51.076;3.784;2023-02-28T08:18:47;8.35;;;5.40;;
45408;SDS011;31162;51.076;3.784;2023-02-28T08:21:16;7.53;;;5.97;;
45408;SDS011;31162;51.076;3.784;2023-02-28T08:23:42;10.90;;;5.90;;
45408;SDS011;31162;51.076;3.784;2023-02-28T08:26:08;6.85;;;5.45;;
45408;SDS011;31162;51.076;3.784;2023-02-28T08:28:34;10.65;;;6.07;;
45408;SDS011;31162;51.076;3.784;2023-02-28T08:31:00;7.88;;;5.70;;
45408;SDS011;31162;51.076;3.784;2023-02-28T08:33:26;8.23;;;5.97;;
45408;SDS011;31162;51.076;3.784;2023-02-28T08:35:53;5.97;;;5.32;;
45408;SDS011;31162;51.076;3.784;2023-02-28T08:38:20;7.80;;;5.20;;
45408;SDS011;31162;51.076;3.784;2023-02-28T08:40:45;7.60;;;5.68;;
45408;SDS011;31162;51.076;3.784;2023-02-28T08:43:11;5.72;;;5.03;;
45408;SDS011;31162;51.076;3.784;2023-02-28T08:45:37;9.10;;;5.50;;
45408;SDS011;31162;51.076;3.784;2023-02-28T08:48:02;7.43;;;5.30;;
45408;SDS011;31162;51.076;3.784;2023-02-28T08:50:28;10.13;;;5.63;;
45408;SDS011;31162;51.076;3.784;2023-02-28T08:52:54;6.88;;;5.25;;
45408;SDS011;31162;51.076;3.784;2023-02-28T08:55:19;9.23;;;5.95;;
45408;SDS011;31162;51.076;3.784;2023-02-28T08:57:45;7.25;;;5.65;;
45408;SDS011;31162;51.076;3.784;2023-02-28T09:00:11;9.18;;;5.43;;
45408;SDS011;31162;51.076;3.784;2023-02-28T09:02:39;14.05;;;6.07;;
45408;SDS011;31162;51.076;3.784;2023-02-28T09:05:05;6.32;;;4.90;;
45408;SDS011;31162;51.076;3.784;2023-02-28T09:07:31;6.93;;;5.47;;
45408;SDS011;31162;51.076;3.784;2023-02-28T09:09:57;8.48;;;5.57;;
45408;SDS011;31162;51.076;3.784;2023-02-28T09:12:26;7.20;;;5.60;;
45408;SDS011;31162;51.076;3.784;2023-02-28T09:14:52;6.25;;;5.63;;
45408;SDS011;31162;51.076;3.784;2023-02-28T09:17:18;5.82;;;5.13;;
45408;SDS011;31162;51.076;3.784;2023-02-28T09:19:45;7.55;;;5.25;;
45408;SDS011;31162;51.076;3.784;2023-02-28T09:22:13;7.68;;;5.43;;
45408;SDS011;31162;51.076;3.784;2023-02-28T09:24:38;6.55;;;5.20;;
45408;SDS011;31162;51.076;3.784;2023-02-28T09:27:04;13.15;;;5.43;;
45408;SDS011;31162;51.076;3.784;2023-02-28T09:29:31;8.35;;;4.78;;
45408;SDS011;31162;51.076;3.784;2023-02-28T09:31:58;5.78;;;4.53;;
45408;SDS011;31162;51.076;3.784;2023-02-28T09:34:25;7.20;;;4.15;;
45408;SDS011;31162;51.076;3.784;2023-02-28T09:36:51;5.85;;;4.10;;
45408;SDS011;31162;51.076;3.784;2023-02-28T09:39:19;4.85;;;4.30;;
45408;SDS011;31162;51.076;3.784;2023-02-28T09:41:50;4.97;;;4.47;;
45408;SDS011;31162;51.076;3.784;2023-02-28T09:44:37;5.45;;;4.20;;
45408;SDS011;31162;51.076;3.784;2023-02-28T09:47:49;10.68;;;4.57;;
45408;SDS011;31162;51.076;3.784;2023-02-28T09:49:50;29.08;;;8.02;;
45408;SDS011;31162;51.076;3.784;2023-02-28T09:52:20;10.70;;;4.43;;
45408;SDS011;31162;51.076;3.784;2023-02-28T09:54:51;5.40;;;4.10;;
45408;SDS011;31162;51.076;3.784;2023-02-28T10:05:05;6.20;;;3.20;;
45408;SDS011;31162;51.076;3.784;2023-02-28T10:07:56;4.25;;;3.30;;
45408;SDS011;31162;51.076;3.784;2023-02-28T10:13:22;3.42;;;3.10;;
45408;SDS011;31162;51.076;3.784;2023-02-28T10:15:59;6.43;;;3.17;;
45408;SDS011;31162;51.076;3.784;2023-02-28T10:18:38;7.18;;;3.63;;
45408;SDS011;31162;51.076;3.784;2023-02-28T10:21:21;3.17;;;2.85;;
45408;SDS011;31162;51.076;3.784;2023-02-28T10:23:55;5.70;;;3.25;;
45408;SDS011;31162;51.076;3.784;2023-02-28T10:26:43;5.60;;;3.00;;
45408;SDS011;31162;51.076;3.784;2023-02-28T10:29:12;6.72;;;3.10;;
45408;SDS011;31162;51.076;3.784;2023-02-28T10:31:38;5.70;;;2.72;;
45408;SDS011;31162;51.076;3.784;2023-02-28T10:34:05;14.90;;;3.70;;
45408;SDS011;31162;51.076;3.784;2023-02-28T10:36:31;8.95;;;2.88;;
45408;SDS011;31162;51.076;3.784;2023-02-28T10:38:57;5.78;;;3.05;;
45408;SDS011;31162;51.076;3.784;2023-02-28T10:41:29;5.13;;;2.60;;
45408;SDS011;31162;51.076;3.784;2023-02-28T10:44:20;5.05;;;2.78;;
45408;SDS011;31162;51.076;3.784;2023-02-28T10:46:47;5.70;;;3.00;;
45408;SDS011;31162;51.076;3.784;2023-02-28T10:49:19;5.65;;;2.88;;
45408;SDS011;31162;51.076;3.784;2023-02-28T10:51:54;6.28;;;2.72;;
45408;SDS011;31162;51.076;3.784;2023-02-28T10:59:45;3.50;;;2.53;;
45408;SDS011;31162;51.076;3.784;2023-02-28T11:02:34;3.33;;;2.00;;
45408;SDS011;31162;51.076;3.784;2023-02-28T11:05:20;4.80;;;2.60;;
45408;SDS011;31162;51.076;3.784;2023-02-28T11:07:55;3.90;;;2.42;;
45408;SDS011;31162;51.076;3.784;2023-02-28T11:10:25;4.25;;;2.58;;
45408;SDS011;31162;51.076;3.784;2023-02-28T11:12:55;4.93;;;2.63;;
45408;SDS011;31162;51.076;3.784;2023-02-28T11:18:04;3.00;;;2.20;;
45408;SDS011;31162;51.076;3.784;2023-02-28T11:20:38;7.43;;;2.88;;
45408;SDS011;31162;51.076;3.784;2023-02-28T11:23:05;3.45;;;2.45;;
45408;SDS011;31162;51.076;3.784;2023-02-28T11:25:38;5.78;;;2.38;;
45408;SDS011;31162;51.076;3.784;2023-02-28T11:28:05;4.30;;;2.70;;
45408;SDS011;31162;51.076;3.784;2023-02-28T11:30:49;3.58;;;2.92;;
45408;SDS011;31162;51.076;3.784;2023-02-28T11:33:28;3.95;;;2.58;;
45408;SDS011;31162;51.076;3.784;2023-02-28T11:36:13;2.25;;;2.00;;
45408;SDS011;31162;51.076;3.784;2023-02-28T11:38:43;4.20;;;2.60;;
45408;SDS011;31162;51.076;3.784;2023-02-28T11:52:13;2.97;;;2.30;;
45408;SDS011;31162;51.076;3.784;2023-02-28T12:11:11;3.67;;;1.80;;
45408;SDS011;31162;51.076;3.784;2023-02-28T12:22:15;12.82;;;2.83;;
45408;SDS011;31162;51.076;3.784;2023-02-28T12:25:03;2.75;;;1.77;;
45408;SDS011;31162;51.076;3.784;2023-02-28T12:27:57;2.10;;;1.58;;
45408;SDS011;31162;51.076;3.784;2023-02-28T12:30:24;2.17;;;1.70;;
45408;SDS011;31162;51.076;3.784;2023-02-28T12:33:06;2.42;;;1.80;;
45408;SDS011;31162;51.076;3.784;2023-02-28T12:35:38;2.30;;;1.77;;
45408;SDS011;31162;51.076;3.784;2023-02-28T12:38:19;2.95;;;2.00;;
45408;SDS011;31162;51.076;3.784;2023-02-28T12:41:02;2.88;;;1.80;;
45408;SDS011;31162;51.076;3.784;2023-02-28T12:43:34;2.30;;;2.10;;
45408;SDS011;31162;51.076;3.784;2023-02-28T12:46:09;2.30;;;2.10;;
45408;SDS011;31162;51.076;3.784;2023-02-28T12:51:49;3.15;;;1.80;;
45408;SDS011;31162;51.076;3.784;2023-02-28T12:59:37;1.92;;;1.60;;
45408;SDS011;31162;51.076;3.784;2023-02-28T13:10:46;2.30;;;2.10;;
45408;SDS011;31162;51.076;3.784;2023-02-28T13:13:19;3.40;;;2.10;;
45408;SDS011;31162;51.076;3.784;2023-02-28T13:15:58;2.17;;;1.77;;
45408;SDS011;31162;51.076;3.784;2023-02-28T13:18:28;2.83;;;1.55;;
45408;SDS011;31162;51.076;3.784;2023-02-28T13:21:24;2.47;;;1.70;;
45408;SDS011;31162;51.076;3.784;2023-02-28T13:34:27;6.57;;;2.10;;
45408;SDS011;31162;51.076;3.784;2023-02-28T13:37:21;2.17;;;1.98;;
45408;SDS011;31162;51.076;3.784;2023-02-28T13:39:49;2.58;;;2.10;;
45408;SDS011;31162;51.076;3.784;2023-02-28T13:42:48;7.13;;;1.95;;
45408;SDS011;31162;51.076;3.784;2023-02-28T13:45:26;2.10;;;1.90;;
45408;SDS011;31162;51.076;3.784;2023-02-28T13:47:56;2.95;;;1.70;;
45408;SDS011;31162;51.076;3.784;2023-02-28T13:52:57;2.95;;;1.60;;
45408;SDS011;31162;51.076;3.784;2023-02-28T13:58:38;3.03;;;2.00;;
45408;SDS011;31162;51.076;3.784;2023-02-28T14:04:02;2.80;;;2.10;;
45408;SDS011;31162;51.076;3.784;2023-02-28T14:06:51;2.70;;;2.28;;
45408;SDS011;31162;51.076;3.784;2023-02-28T14:09:21;2.95;;;2.03;;
45408;SDS011;31162;51.076;3.784;2023-02-28T14:20:54;2.20;;;2.00;;
45408;SDS011;31162;51.076;3.784;2023-02-28T14:23:40;2.70;;;2.05;;
45408;SDS011;31162;51.076;3.784;2023-02-28T14:37:45;3.63;;;2.22;;
45408;SDS011;31162;51.076;3.784;2023-02-28T14:40:32;2.92;;;2.30;;
45408;SDS011;31162;51.076;3.784;2023-02-28T14:43:01;3.35;;;2.80;;
45408;SDS011;31162;51.076;3.784;2023-02-28T14:45:30;3.00;;;2.80;;
45408;SDS011;31162;51.076;3.784;2023-02-28T14:47:58;2.53;;;2.33;;
45408;SDS011;31162;51.076;3.784;2023-02-28T14:50:32;8.75;;;2.70;;
45408;SDS011;31162;51.076;3.784;2023-02-28T14:53:00;2.95;;;2.70;;
45408;SDS011;31162;51.076;3.784;2023-02-28T14:55:36;3.20;;;2.90;;
45408;SDS011;31162;51.076;3.784;2023-02-28T14:58:03;4.55;;;2.70;;
45408;SDS011;31162;51.076;3.784;2023-02-28T15:00:53;2.80;;;2.60;;
45408;SDS011;31162;51.076;3.784;2023-02-28T15:08:18;3.22;;;2.92;;
45408;SDS011;31162;51.076;3.784;2023-02-28T15:10:57;2.80;;;2.55;;
45408;SDS011;31162;51.076;3.784;2023-02-28T15:16:55;3.92;;;3.15;;
45408;SDS011;31162;51.076;3.784;2023-02-28T15:19:05;3.50;;;3.20;;
45408;SDS011;31162;51.076;3.784;2023-02-28T15:21:38;4.18;;;2.90;;
45408;SDS011;31162;51.076;3.784;2023-02-28T15:24:08;5.20;;;2.70;;
45408;SDS011;31162;51.076;3.784;2023-02-28T15:26:40;2.88;;;2.67;;
45408;SDS011;31162;51.076;3.784;2023-02-28T15:29:11;2.80;;;2.60;;
45408;SDS011;31162;51.076;3.784;2023-02-28T15:31:58;3.28;;;2.70;;
45408;SDS011;31162;51.076;3.784;2023-02-28T15:36:53;4.43;;;2.88;;
45408;SDS011;31162;51.076;3.784;2023-02-28T15:39:23;3.38;;;3.08;;
45408;SDS011;31162;51.076;3.784;2023-02-28T15:42:09;5.95;;;2.90;;
45408;SDS011;31162;51.076;3.784;2023-02-28T15:44:36;3.88;;;2.85;;
45408;SDS011;31162;51.076;3.784;2023-02-28T15:47:03;4.75;;;2.90;;
45408;SDS011;31162;51.076;3.784;2023-02-28T15:49:40;2.92;;;2.72;;
45408;SDS011;31162;51.076;3.784;2023-02-28T15:52:13;2.97;;;2.65;;
45408;SDS011;31162;51.076;3.784;2023-02-28T15:54:42;5.15;;;3.00;;
45408;SDS011;31162;51.076;3.784;2023-02-28T16:00:06;3.00;;;2.70;;
45408;SDS011;31162;51.076;3.784;2023-02-28T16:02:38;2.70;;;2.50;;
45408;SDS011;31162;51.076;3.784;2023-02-28T16:07:33;4.97;;;3.40;;
45408;SDS011;31162;51.076;3.784;2023-02-28T16:10:00;4.90;;;2.97;;
45408;SDS011;31162;51.076;3.784;2023-02-28T16:12:30;4.30;;;3.10;;
45408;SDS011;31162;51.076;3.784;2023-02-28T16:14:58;3.78;;;3.05;;
45408;SDS011;31162;51.076;3.784;2023-02-28T16:17:29;7.28;;;3.70;;
45408;SDS011;31162;51.076;3.784;2023-02-28T16:19:58;3.50;;;3.20;;
45408;SDS011;31162;51.076;3.784;2023-02-28T16:22:24;3.45;;;3.15;;
45408;SDS011;31162;51.076;3.784;2023-02-28T16:24:49;4.95;;;3.38;;
45408;SDS011;31162;51.076;3.784;2023-02-28T16:27:20;4.45;;;3.30;;
45408;SDS011;31162;51.076;3.784;2023-02-28T16:29:51;4.15;;;3.50;;
45408;SDS011;31162;51.076;3.784;2023-02-28T16:32:18;5.47;;;3.30;;
45408;SDS011;31162;51.076;3.784;2023-02-28T16:34:44;3.40;;;2.80;;
45408;SDS011;31162;51.076;3.784;2023-02-28T16:37:13;5.75;;;3.30;;
45408;SDS011;31162;51.076;3.784;2023-02-28T16:39:41;3.42;;;3.05;;
45408;SDS011;31162;51.076;3.784;2023-02-28T16:42:10;6.70;;;3.80;;
45408;SDS011;31162;51.076;3.784;2023-02-28T16:44:41;4.53;;;3.72;;
45408;SDS011;31162;51.076;3.784;2023-02-28T16:47:08;4.15;;;3.75;;
45408;SDS011;31162;51.076;3.784;2023-02-28T16:49:35;5.30;;;3.95;;
45408;SDS011;31162;51.076;3.784;2023-02-28T16:52:01;4.32;;;3.53;;
45408;SDS011;31162;51.076;3.784;2023-02-28T16:54:27;5.03;;;3.78;;
45408;SDS011;31162;51.076;3.784;2023-02-28T16:56:53;4.45;;;3.60;;
45408;SDS011;31162;51.076;3.784;2023-02-28T16:59:23;3.47;;;3.17;;
45408;SDS011;31162;51.076;3.784;2023-02-28T17:01:50;5.77;;;3.77;;
45408;SDS011;31162;51.076;3.784;2023-02-28T17:04:16;4.10;;;3.75;;
45408;SDS011;31162;51.076;3.784;2023-02-28T17:06:42;5.47;;;3.80;;
45408;SDS011;31162;51.076;3.784;2023-02-28T17:09:11;5.57;;;4.10;;
45408;SDS011;31162;51.076;3.784;2023-02-28T17:11:41;5.57;;;4.10;;
45408;SDS011;31162;51.076;3.784;2023-02-28T17:14:07;4.45;;;3.90;;
45408;SDS011;31162;51.076;3.784;2023-02-28T17:16:33;4.50;;;3.80;;
45408;SDS011;31162;51.076;3.784;2023-02-28T17:19:02;4.57;;;3.70;;
45408;SDS011;31162;51.076;3.784;2023-02-28T17:21:31;4.32;;;3.58;;
45408;SDS011;31162;51.076;3.784;2023-02-28T17:23:58;4.00;;;3.65;;
45408;SDS011;31162;51.076;3.784;2023-02-28T17:26:24;5.13;;;3.90;;
45408;SDS011;31162;51.076;3.784;2023-02-28T17:28:50;5.78;;;4.25;;
45408;SDS011;31162;51.076;3.784;2023-02-28T17:31:17;5.43;;;4.13;;
45408;SDS011;31162;51.076;3.784;2023-02-28T17:33:43;4.97;;;3.97;;
45408;SDS011;31162;51.076;3.784;2023-02-28T17:36:13;7.45;;;4.88;;
45408;SDS011;31162;51.076;3.784;2023-02-28T17:38:40;8.27;;;6.68;;
45408;SDS011;31162;51.076;3.784;2023-02-28T17:41:07;11.65;;;9.73;;